Time;durP1;ratioP1;P1;durP2;ratioP2;P2;SDS_P1;SDS_P2;PMS_P1;PMS_P2;Temp;Humidity;BMP_temperature;BMP_pressure;BME280_temperature;BME280_humidity;BME280_pressure;Samples;Min_cycle;Max_cycle;Signal;HPM_P1;HPM_P2
2022/08/03 00:01:27;;;;;;;2.17;0.70;;;;;;;;;;5032692;28;20492;-71
2022/08/03 00:03:53;;;;;;;1.20;0.65;;;;;;;;;;5033398;28;20021;-71
2022/08/03 00:06:18;;;;;;;2.10;0.80;;;;;;;;;;5038684;28;20025;-72
2022/08/03 00:08:43;;;;;;;0.50;0.40;;;;;;;;;;5035695;28;20037;-71
2022/08/03 00:11:08;;;;;;;1.95;0.60;;;;;;;;;;5040551;28;20033;-71
2022/08/03 00:13:34;;;;;;;1.92;0.70;;;;;;;;;;5040362;28;20025;-71
2022/08/03 00:15:59;;;;;;;1.60;0.65;;;;;;;;;;5035824;28;20083;-71
2022/08/03 00:18:25;;;;;;;2.67;0.70;;;;;;;;;;5043670;28;20021;-71
2022/08/03 00:20:50;;;;;;;2.03;0.70;;;;;;;;;;5037950;28;20376;-71
2022/08/03 00:23:15;;;;;;;1.80;1.00;;;;;;;;;;5044487;28;20037;-71
2022/08/03 00:25:41;;;;;;;1.40;0.80;;;;;;;;;;5039841;28;20495;-71
2022/08/03 00:28:06;;;;;;;2.50;0.70;;;;;;;;;;5046829;28;20487;-71
2022/08/03 00:30:32;;;;;;;1.55;0.70;;;;;;;;;;5037866;28;20040;-71
2022/08/03 00:32:57;;;;;;;1.27;0.77;;;;;;;;;;5032552;28;20040;-71
2022/08/03 00:35:23;;;;;;;2.05;0.90;;;;;;;;;;5038918;28;20034;-71
2022/08/03 00:37:48;;;;;;;2.92;0.70;;;;;;;;;;5043064;28;20030;-71
2022/08/03 00:40:14;;;;;;;3.30;0.93;;;;;;;;;;5035923;28;20042;-71
2022/08/03 00:42:50;;;;;;;4.18;0.98;;;;;;;;;;5036771;28;20095;-71
2022/08/03 00:45:19;;;;;;;4.65;0.90;;;;;;;;;;5037286;28;20368;-70
2022/08/03 00:47:45;;;;;;;2.10;0.80;;;;;;;;;;5041998;28;20086;-71
2022/08/03 00:50:10;;;;;;;1.40;0.77;;;;;;;;;;5041936;28;20033;-71
2022/08/03 00:52:35;;;;;;;3.42;0.90;;;;;;;;;;5035858;28;20014;-71
2022/08/03 00:55:01;;;;;;;1.85;0.80;;;;;;;;;;5033963;28;20105;-71
2022/08/03 00:57:28;;;;;;;2.47;1.08;;;;;;;;;;5037114;28;20037;-71
2022/08/03 00:59:54;;;;;;;1.90;1.00;;;;;;;;;;5035040;28;20472;-71
2022/08/03 01:02:19;;;;;;;3.45;1.10;;;;;;;;;;5040096;28;20037;-71
2022/08/03 01:04:44;;;;;;;2.03;0.80;;;;;;;;;;5047841;28;20022;-71
2022/08/03 01:07:30;;;;;;;3.05;0.80;;;;;;;;;;5033523;28;20021;-71
2022/08/03 01:10:05;;;;;;;2.17;0.90;;;;;;;;;;5034464;28;20037;-71
2022/08/03 01:12:33;;;;;;;2.22;0.85;;;;;;;;;;5045967;28;20043;-71
2022/08/03 01:15:06;;;;;;;2.13;0.70;;;;;;;;;;5036057;28;20082;-71
2022/08/03 01:17:35;;;;;;;1.77;0.80;;;;;;;;;;5039249;28;20025;-71
2022/08/03 01:20:03;;;;;;;2.50;0.80;;;;;;;;;;5036633;28;20053;-71
2022/08/03 01:22:55;;;;;;;2.60;0.77;;;;;;;;;;5028857;28;20112;-71
2022/08/03 01:25:20;;;;;;;2.92;0.82;;;;;;;;;;5038564;28;20022;-71
2022/08/03 01:27:48;;;;;;;0.95;0.50;;;;;;;;;;5040129;28;20025;-71
2022/08/03 01:30:14;;;;;;;2.97;0.70;;;;;;;;;;5035920;28;20087;-71
2022/08/03 01:32:50;;;;;;;0.77;0.50;;;;;;;;;;5036556;28;20025;-71
2022/08/03 01:35:19;;;;;;;1.83;0.70;;;;;;;;;;5034741;28;20037;-71
2022/08/03 01:37:48;;;;;;;2.10;0.82;;;;;;;;;;5039741;28;20037;-71
2022/08/03 01:40:14;;;;;;;3.20;0.80;;;;;;;;;;5037480;28;20064;-71
2022/08/03 01:42:41;;;;;;;1.33;0.70;;;;;;;;;;5046139;28;20078;-71
2022/08/03 01:45:07;;;;;;;1.60;0.73;;;;;;;;;;5039439;28;20035;-71
2022/08/03 01:47:34;;;;;;;2.70;0.60;;;;;;;;;;5039701;28;20036;-71
2022/08/03 01:50:00;;;;;;;3.42;0.80;;;;;;;;;;5043200;28;20021;-71
2022/08/03 01:52:26;;;;;;;6.07;1.45;;;;;;;;;;5048189;28;20044;-71
2022/08/03 01:54:52;;;;;;;1.40;0.65;;;;;;;;;;5043312;28;20029;-71
2022/08/03 01:57:18;;;;;;;1.08;0.50;;;;;;;;;;5040538;28;20365;-71
2022/08/03 01:59:45;;;;;;;1.58;0.70;;;;;;;;;;5042861;28;20107;-71
2022/08/03 02:02:15;;;;;;;0.90;0.50;;;;;;;;;;5035863;28;20111;-71
2022/08/03 02:04:42;;;;;;;0.65;0.40;;;;;;;;;;5042874;28;20025;-71
2022/08/03 02:07:09;;;;;;;1.45;0.43;;;;;;;;;;5041710;28;20047;-71
2022/08/03 02:09:36;;;;;;;2.30;0.50;;;;;;;;;;5037202;28;20414;-71
2022/08/03 02:12:01;;;;;;;0.75;0.47;;;;;;;;;;5043342;28;20092;-71
2022/08/03 02:14:27;;;;;;;1.92;0.65;;;;;;;;;;5039316;28;20048;-71
2022/08/03 02:16:52;;;;;;;1.20;0.70;;;;;;;;;;5035616;28;20025;-72
2022/08/03 02:19:18;;;;;;;0.77;0.50;;;;;;;;;;5035638;28;20025;-71
2022/08/03 02:21:44;;;;;;;2.50;0.55;;;;;;;;;;5042704;28;20048;-71
2022/08/03 02:24:09;;;;;;;2.20;0.60;;;;;;;;;;5051145;28;20061;-71
2022/08/03 02:26:36;;;;;;;4.05;0.73;;;;;;;;;;5043872;28;20044;-71
2022/08/03 02:29:04;;;;;;;3.35;0.70;;;;;;;;;;5045076;28;20087;-71
2022/08/03 02:31:31;;;;;;;5.75;0.70;;;;;;;;;;5036211;28;20026;-71
2022/08/03 02:34:01;;;;;;;0.55;0.40;;;;;;;;;;5044253;28;20223;-71
2022/08/03 02:36:28;;;;;;;2.25;0.93;;;;;;;;;;5047122;28;20029;-71
2022/08/03 02:38:55;;;;;;;1.38;0.60;;;;;;;;;;5049445;28;20049;-70
2022/08/03 02:41:26;;;;;;;4.05;0.63;;;;;;;;;;5046194;28;20075;-71
2022/08/03 02:43:53;;;;;;;2.00;0.63;;;;;;;;;;5042619;28;20428;-71
2022/08/03 02:46:19;;;;;;;4.82;0.70;;;;;;;;;;5036887;28;20043;-71
2022/08/03 02:48:46;;;;;;;2.55;0.50;;;;;;;;;;5046957;28;20447;-71
2022/08/03 02:51:11;;;;;;;1.30;0.52;;;;;;;;;;5042281;28;20064;-71
2022/08/03 02:53:37;;;;;;;1.33;0.45;;;;;;;;;;5041538;28;20061;-71
2022/08/03 02:56:04;;;;;;;0.60;0.40;;;;;;;;;;5035277;28;20025;-71
2022/08/03 02:58:30;;;;;;;0.50;0.40;;;;;;;;;;5040677;28;20536;-71
2022/08/03 03:00:56;;;;;;;3.10;0.77;;;;;;;;;;5034447;28;20109;-71
2022/08/03 03:03:22;;;;;;;1.75;0.50;;;;;;;;;;5042621;28;20654;-71
2022/08/03 03:05:48;;;;;;;1.73;0.50;;;;;;;;;;5040206;28;20048;-71
2022/08/03 03:08:15;;;;;;;2.60;0.43;;;;;;;;;;5042783;28;20447;-71
2022/08/03 03:10:40;;;;;;;0.88;0.40;;;;;;;;;;5041379;28;20013;-71
2022/08/03 03:13:06;;;;;;;1.15;0.60;;;;;;;;;;5036221;28;20112;-70
2022/08/03 03:15:34;;;;;;;2.92;0.50;;;;;;;;;;5038380;28;20056;-71
2022/08/03 03:18:00;;;;;;;2.08;0.93;;;;;;;;;;5037867;28;20021;-71
2022/08/03 03:20:27;;;;;;;1.10;0.60;;;;;;;;;;5037459;28;20517;-71
2022/08/03 03:22:52;;;;;;;2.72;0.50;;;;;;;;;;5044266;28;20069;-71
2022/08/03 03:25:18;;;;;;;1.52;0.70;;;;;;;;;;5039779;28;20426;-71
2022/08/03 03:27:43;;;;;;;2.30;0.90;;;;;;;;;;5038438;28;20045;-71
2022/08/03 03:30:09;;;;;;;3.17;0.70;;;;;;;;;;5039404;28;20025;-71
2022/08/03 03:32:38;;;;;;;1.60;0.55;;;;;;;;;;5036118;28;20415;-71
2022/08/03 03:35:04;;;;;;;1.08;0.70;;;;;;;;;;5042990;28;20029;-71
2022/08/03 03:37:29;;;;;;;5.15;0.80;;;;;;;;;;5041934;28;20461;-71
2022/08/03 03:39:55;;;;;;;2.85;0.75;;;;;;;;;;5038787;28;20480;-71
2022/08/03 03:42:20;;;;;;;1.75;0.80;;;;;;;;;;5041815;28;20034;-71
2022/08/03 03:44:45;;;;;;;1.85;0.75;;;;;;;;;;5035760;28;20113;-71
2022/08/03 03:47:11;;;;;;;6.82;0.93;;;;;;;;;;5033781;28;20025;-71
2022/08/03 03:49:37;;;;;;;3.97;0.80;;;;;;;;;;5045513;28;20036;-71
2022/08/03 03:52:02;;;;;;;2.45;0.90;;;;;;;;;;5045730;28;20040;-71
2022/08/03 03:54:38;;;;;;;1.20;0.80;;;;;;;;;;5048815;28;20104;-71
2022/08/03 03:57:03;;;;;;;1.92;0.70;;;;;;;;;;5042754;28;20034;-71
2022/08/03 03:59:29;;;;;;;3.60;1.10;;;;;;;;;;5045557;28;20041;-71
2022/08/03 04:01:54;;;;;;;2.78;1.10;;;;;;;;;;5033283;28;20091;-70
2022/08/03 04:12:31;;;;;;;4.07;1.20;;;;;;;;;;5044912;28;19911;-71
2022/08/03 04:14:57;;;;;;;2.63;1.15;;;;;;;;;;5037701;28;20439;-71
2022/08/03 04:17:25;;;;;;;2.35;0.93;;;;;;;;;;5038582;28;20017;-71
2022/08/03 04:19:52;;;;;;;3.22;1.00;;;;;;;;;;5033521;28;20031;-71
2022/08/03 04:22:18;;;;;;;3.00;1.00;;;;;;;;;;5033800;28;20045;-71
2022/08/03 04:24:47;;;;;;;3.72;1.00;;;;;;;;;;5042825;28;20021;-71
2022/08/03 04:27:14;;;;;;;1.73;0.80;;;;;;;;;;5043017;28;20059;-70
2022/08/03 04:29:41;;;;;;;3.20;1.00;;;;;;;;;;5039179;28;20495;-71
2022/08/03 04:32:06;;;;;;;4.03;1.10;;;;;;;;;;5035908;28;20018;-70
2022/08/03 04:34:32;;;;;;;3.50;1.10;;;;;;;;;;5046897;28;20024;-71
2022/08/03 04:36:58;;;;;;;2.00;0.95;;;;;;;;;;5036675;28;20472;-71
2022/08/03 04:39:25;;;;;;;3.90;0.90;;;;;;;;;;5047535;28;20047;-71
2022/08/03 04:41:52;;;;;;;2.90;0.95;;;;;;;;;;5040535;28;20118;-71
2022/08/03 04:44:18;;;;;;;4.10;1.20;;;;;;;;;;5041386;28;20388;-71
2022/08/03 04:46:43;;;;;;;6.97;1.17;;;;;;;;;;5033115;28;20032;-71
2022/08/03 04:49:09;;;;;;;3.25;1.13;;;;;;;;;;5051767;28;20017;-71
2022/08/03 04:51:37;;;;;;;4.30;1.17;;;;;;;;;;5034941;28;20030;-71
2022/08/03 04:54:03;;;;;;;2.85;1.08;;;;;;;;;;5042470;28;20022;-71
2022/08/03 04:56:28;;;;;;;4.63;1.10;;;;;;;;;;5034999;28;20472;-71
2022/08/03 04:58:53;;;;;;;4.15;1.38;;;;;;;;;;5041301;28;20041;-71
2022/08/03 05:01:22;;;;;;;4.47;1.25;;;;;;;;;;5034955;28;20033;-70
2022/08/03 05:03:47;;;;;;;9.55;1.33;;;;;;;;;;5044152;28;20108;-71
2022/08/03 05:06:12;;;;;;;2.67;1.10;;;;;;;;;;5037098;28;20155;-71
2022/08/03 05:08:38;;;;;;;6.10;1.35;;;;;;;;;;5050912;28;20032;-71
2022/08/03 05:11:03;;;;;;;4.30;1.30;;;;;;;;;;5037590;28;20040;-71
2022/08/03 05:13:29;;;;;;;5.60;1.52;;;;;;;;;;5039315;28;20108;-71
2022/08/03 05:15:54;;;;;;;3.90;1.40;;;;;;;;;;5035162;28;20096;-71
2022/08/03 05:18:19;;;;;;;6.40;1.52;;;;;;;;;;5034835;28;20105;-71
2022/08/03 05:20:45;;;;;;;5.60;1.60;;;;;;;;;;5037343;28;20048;-71
2022/08/03 05:23:10;;;;;;;4.47;1.20;;;;;;;;;;5034002;28;20057;-71
2022/08/03 05:25:35;;;;;;;4.00;1.42;;;;;;;;;;5035581;28;20096;-71
2022/08/03 05:28:00;;;;;;;3.92;1.60;;;;;;;;;;5036247;28;20053;-71
2022/08/03 05:30:26;;;;;;;3.97;1.10;;;;;;;;;;5036222;28;20026;-71
2022/08/03 05:32:52;;;;;;;5.13;1.30;;;;;;;;;;5032664;28;20025;-71
2022/08/03 05:35:17;;;;;;;2.63;1.25;;;;;;;;;;5037249;28;20060;-71
2022/08/03 05:37:42;;;;;;;4.03;1.35;;;;;;;;;;5041064;28;20021;-71
2022/08/03 05:40:08;;;;;;;4.05;1.20;;;;;;;;;;5036558;28;20080;-70
2022/08/03 05:42:35;;;;;;;4.82;1.27;;;;;;;;;;5040256;28;20037;-71
2022/08/03 05:45:02;;;;;;;5.05;1.60;;;;;;;;;;5032786;28;20049;-70
2022/08/03 05:47:28;;;;;;;2.85;1.00;;;;;;;;;;5039531;28;20469;-71
2022/08/03 05:49:53;;;;;;;1.88;1.02;;;;;;;;;;5038502;28;20029;-71
2022/08/03 05:52:18;;;;;;;1.70;0.90;;;;;;;;;;5032637;28;20028;-71
2022/08/03 05:54:44;;;;;;;3.50;0.80;;;;;;;;;;5027084;28;20071;-71
2022/08/03 05:57:09;;;;;;;3.13;1.02;;;;;;;;;;5049448;28;20041;-71
2022/08/03 05:59:36;;;;;;;4.68;0.98;;;;;;;;;;5035703;28;20025;-71
2022/08/03 06:02:02;;;;;;;3.10;0.95;;;;;;;;;;5035815;28;20392;-71
2022/08/03 06:04:27;;;;;;;2.63;0.90;;;;;;;;;;5041830;28;20113;-71
2022/08/03 06:06:52;;;;;;;2.38;1.02;;;;;;;;;;5036202;28;20029;-71
2022/08/03 06:09:18;;;;;;;2.50;0.60;;;;;;;;;;5044425;28;20010;-71
2022/08/03 06:11:43;;;;;;;3.08;0.93;;;;;;;;;;5042508;28;20060;-71
2022/08/03 06:14:08;;;;;;;1.88;0.80;;;;;;;;;;5037523;28;20028;-71
2022/08/03 06:16:34;;;;;;;3.05;0.80;;;;;;;;;;5037765;28;20025;-71
2022/08/03 06:18:59;;;;;;;4.00;0.70;;;;;;;;;;5038767;28;20432;-71
2022/08/03 06:21:25;;;;;;;2.80;0.70;;;;;;;;;;5038137;28;20034;-71
2022/08/03 06:23:50;;;;;;;1.85;0.70;;;;;;;;;;5045390;28;20021;-71
2022/08/03 06:26:15;;;;;;;1.02;0.60;;;;;;;;;;5041691;28;20495;-71
2022/08/03 06:28:43;;;;;;;2.90;0.60;;;;;;;;;;5043936;28;20032;-71
2022/08/03 06:31:08;;;;;;;3.20;0.73;;;;;;;;;;5046286;28;20056;-71
2022/08/03 06:33:33;;;;;;;1.90;0.60;;;;;;;;;;5048821;28;20128;-71
2022/08/03 06:35:59;;;;;;;2.10;0.57;;;;;;;;;;5041695;28;20413;-71
2022/08/03 06:38:24;;;;;;;1.10;0.50;;;;;;;;;;5050979;28;20024;-71
2022/08/03 06:40:49;;;;;;;1.15;0.50;;;;;;;;;;5039916;28;20539;-71
2022/08/03 06:43:15;;;;;;;0.55;0.40;;;;;;;;;;5045965;28;20036;-71
2022/08/03 06:45:40;;;;;;;2.35;0.57;;;;;;;;;;5046614;28;20025;-71
2022/08/03 06:48:06;;;;;;;0.70;0.47;;;;;;;;;;5041991;28;20043;-71
2022/08/03 06:50:33;;;;;;;0.40;0.38;;;;;;;;;;5052284;28;20025;-71
2022/08/03 06:52:59;;;;;;;0.93;0.55;;;;;;;;;;5023954;28;20026;-71
2022/08/03 06:55:24;;;;;;;1.85;0.50;;;;;;;;;;5048981;28;20388;-71
2022/08/03 06:57:50;;;;;;;0.90;0.43;;;;;;;;;;5053550;28;20025;-71
2022/08/03 07:00:15;;;;;;;0.52;0.38;;;;;;;;;;5052576;28;20507;-71
2022/08/03 07:02:41;;;;;;;1.13;0.63;;;;;;;;;;5039923;28;20045;-71
2022/08/03 07:05:07;;;;;;;1.90;0.40;;;;;;;;;;5047604;28;20021;-71
2022/08/03 07:07:32;;;;;;;1.17;0.50;;;;;;;;;;5046042;28;20018;-70
2022/08/03 07:09:57;;;;;;;2.28;0.45;;;;;;;;;;5047813;28;20400;-71
2022/08/03 07:12:23;;;;;;;0.40;0.40;;;;;;;;;;5034755;28;20021;-71
2022/08/03 07:14:48;;;;;;;0.80;0.50;;;;;;;;;;5047535;28;20108;-71
2022/08/03 07:17:13;;;;;;;1.65;0.40;;;;;;;;;;5053161;28;20029;-71
2022/08/03 07:19:39;;;;;;;0.90;0.50;;;;;;;;;;5050917;28;20033;-71
2022/08/03 07:22:04;;;;;;;1.10;0.60;;;;;;;;;;5032888;28;20037;-71
2022/08/03 07:24:29;;;;;;;1.60;0.50;;;;;;;;;;5036579;28;20557;-71
2022/08/03 07:26:55;;;;;;;1.40;0.65;;;;;;;;;;5035277;28;20024;-71
2022/08/03 07:29:20;;;;;;;1.27;0.60;;;;;;;;;;5040653;28;20415;-71
2022/08/03 07:31:45;;;;;;;4.55;0.70;;;;;;;;;;5047322;28;20043;-71
2022/08/03 07:34:11;;;;;;;1.30;0.60;;;;;;;;;;5038144;28;20096;-71
2022/08/03 07:36:36;;;;;;;1.63;0.60;;;;;;;;;;5047295;28;20365;-71
2022/08/03 07:39:01;;;;;;;1.23;0.60;;;;;;;;;;5040269;28;20040;-71
2022/08/03 07:41:26;;;;;;;1.77;0.52;;;;;;;;;;5053754;28;20095;-71
2022/08/03 07:43:52;;;;;;;0.95;0.40;;;;;;;;;;5036750;28;20424;-71
2022/08/03 07:46:17;;;;;;;0.60;0.60;;;;;;;;;;5031191;28;20033;-71
2022/08/03 07:48:42;;;;;;;1.35;0.50;;;;;;;;;;5041374;28;20389;-71
2022/08/03 07:51:08;;;;;;;1.38;0.50;;;;;;;;;;5035703;28;20025;-71
2022/08/03 07:53:33;;;;;;;1.42;0.60;;;;;;;;;;5048279;28;20487;-72
2022/08/03 07:55:58;;;;;;;1.08;0.40;;;;;;;;;;5052697;28;20025;-71
2022/08/03 07:58:24;;;;;;;1.73;0.40;;;;;;;;;;5038162;28;20112;-71
2022/08/03 08:00:51;;;;;;;1.40;0.70;;;;;;;;;;5034010;28;20111;-72
2022/08/03 08:03:16;;;;;;;1.35;0.40;;;;;;;;;;5034150;28;20028;-71
2022/08/03 08:05:42;;;;;;;1.30;0.55;;;;;;;;;;5018018;28;20369;-71
2022/08/03 08:08:07;;;;;;;0.60;0.30;;;;;;;;;;5034964;28;20076;-71
2022/08/03 08:10:34;;;;;;;0.50;0.40;;;;;;;;;;5034992;28;20021;-71
2022/08/03 08:12:59;;;;;;;1.98;0.50;;;;;;;;;;5039759;28;20028;-71
2022/08/03 08:15:24;;;;;;;0.43;0.30;;;;;;;;;;5032603;28;20033;-71
2022/08/03 08:17:51;;;;;;;2.17;0.45;;;;;;;;;;5033197;28;20501;-71
2022/08/03 08:20:19;;;;;;;0.98;0.40;;;;;;;;;;5030055;28;20036;-71
2022/08/03 08:22:44;;;;;;;2.00;0.50;;;;;;;;;;5040026;28;20048;-71
2022/08/03 08:25:09;;;;;;;1.02;0.50;;;;;;;;;;5038304;28;20013;-71
2022/08/03 08:27:42;;;;;;;0.60;0.50;;;;;;;;;;5043020;28;20017;-71
2022/08/03 08:30:07;;;;;;;3.53;0.60;;;;;;;;;;5017859;28;20036;-70
2022/08/03 08:32:33;;;;;;;0.80;0.50;;;;;;;;;;5043317;28;20021;-72
2022/08/03 08:34:59;;;;;;;0.85;0.40;;;;;;;;;;5036054;28;20017;-72
2022/08/03 08:37:24;;;;;;;2.00;0.50;;;;;;;;;;5044183;28;20060;-71
2022/08/03 08:39:49;;;;;;;0.47;0.40;;;;;;;;;;5043774;28;21280;-71
2022/08/03 08:42:15;;;;;;;1.73;0.57;;;;;;;;;;5038757;28;20045;-71
2022/08/03 08:44:40;;;;;;;1.20;0.55;;;;;;;;;;5045717;28;20108;-71
2022/08/03 08:47:06;;;;;;;0.43;0.38;;;;;;;;;;5038625;28;20096;-71
2022/08/03 08:49:34;;;;;;;2.28;0.80;;;;;;;;;;5038331;28;20100;-71
2022/08/03 08:52:00;;;;;;;2.55;0.60;;;;;;;;;;5048869;28;20033;-72
2022/08/03 08:54:25;;;;;;;0.65;0.47;;;;;;;;;;5041087;28;20350;-72
2022/08/03 08:56:52;;;;;;;1.23;0.45;;;;;;;;;;5030178;28;20021;-71
2022/08/03 08:59:17;;;;;;;1.30;0.70;;;;;;;;;;5029403;28;20037;-71
2022/08/03 09:01:43;;;;;;;0.98;0.60;;;;;;;;;;5030047;28;20029;-71
2022/08/03 09:04:08;;;;;;;0.50;0.40;;;;;;;;;;5027516;28;20041;-71
2022/08/03 09:06:34;;;;;;;1.35;0.60;;;;;;;;;;5027492;28;20028;-71
2022/08/03 09:08:59;;;;;;;1.25;0.70;;;;;;;;;;5027090;28;20124;-71
2022/08/03 09:11:25;;;;;;;1.65;0.50;;;;;;;;;;5028522;28;20120;-72
2022/08/03 09:13:50;;;;;;;1.38;0.70;;;;;;;;;;5031544;28;20032;-72
2022/08/03 09:16:17;;;;;;;2.33;0.70;;;;;;;;;;5033502;28;20030;-71
2022/08/03 09:18:44;;;;;;;1.58;0.60;;;;;;;;;;5043083;28;20470;-71
2022/08/03 09:21:17;;;;;;;1.50;0.80;;;;;;;;;;5038377;28;20095;-71
2022/08/03 09:23:43;;;;;;;1.23;0.77;;;;;;;;;;5028983;28;20639;-71
2022/08/03 09:26:09;;;;;;;1.52;0.70;;;;;;;;;;5034101;28;20062;-71
2022/08/03 09:28:34;;;;;;;2.67;0.80;;;;;;;;;;5045186;28;20093;-71
2022/08/03 09:30:59;;;;;;;1.05;0.70;;;;;;;;;;5036312;28;20022;-71
2022/08/03 09:33:25;;;;;;;1.73;0.80;;;;;;;;;;5051268;28;20037;-71
2022/08/03 09:35:50;;;;;;;2.80;1.00;;;;;;;;;;5043262;28;20492;-71
2022/08/03 09:38:23;;;;;;;1.85;0.85;;;;;;;;;;5043763;28;20056;-71
2022/08/03 09:40:48;;;;;;;1.60;0.65;;;;;;;;;;5038487;28;20477;-71
2022/08/03 09:43:14;;;;;;;1.60;0.90;;;;;;;;;;5051355;28;20055;-71
2022/08/03 09:45:40;;;;;;;1.60;0.90;;;;;;;;;;5048614;28;20014;-71
2022/08/03 09:48:23;;;;;;;3.60;1.00;;;;;;;;;;5046732;28;20472;-71
2022/08/03 09:50:49;;;;;;;;;;;;;;;;;;5047630;28;20119;-71
2022/08/03 09:53:14;;;;;;;2.20;0.90;;;;;;;;;;5040355;28;20039;-71
2022/08/03 09:55:48;;;;;;;3.90;1.20;;;;;;;;;;5062331;28;20503;-71
2022/08/03 09:58:14;;;;;;;2.35;0.93;;;;;;;;;;5028140;28;20080;-71
2022/08/03 10:00:58;;;;;;;2.35;1.13;;;;;;;;;;5025074;28;20025;-71
2022/08/03 10:03:24;;;;;;;1.50;1.00;;;;;;;;;;5030979;28;20124;-71
2022/08/03 10:05:50;;;;;;;2.40;1.00;;;;;;;;;;5029008;28;20033;-71
2022/08/03 10:08:16;;;;;;;2.33;1.00;;;;;;;;;;5031759;28;20159;-71
2022/08/03 10:10:42;;;;;;;2.45;1.20;;;;;;;;;;5031516;28;20033;-71
2022/08/03 10:13:09;;;;;;;2.80;1.13;;;;;;;;;;5028649;28;20042;-71
2022/08/03 10:15:34;;;;;;;2.67;1.30;;;;;;;;;;5025549;28;20361;-72
2022/08/03 10:18:00;;;;;;;3.35;1.25;;;;;;;;;;5031924;28;20036;-71
2022/08/03 10:20:25;;;;;;;2.00;1.15;;;;;;;;;;5032336;28;20053;-71
2022/08/03 10:22:50;;;;;;;3.17;1.10;;;;;;;;;;5033241;28;20061;-71
2022/08/03 10:25:16;;;;;;;6.95;1.27;;;;;;;;;;5031288;28;20376;-71
2022/08/03 10:27:46;;;;;;;3.22;1.30;;;;;;;;;;5036527;28;20192;-71
2022/08/03 10:30:11;;;;;;;3.95;1.30;;;;;;;;;;5041345;28;20021;-71
2022/08/03 10:32:36;;;;;;;2.42;1.30;;;;;;;;;;5030914;28;20032;-71
2022/08/03 10:35:06;;;;;;;3.42;1.40;;;;;;;;;;5043889;28;20112;-71
2022/08/03 10:37:33;;;;;;;5.78;1.40;;;;;;;;;;5043273;28;20021;-71
2022/08/03 10:39:59;;;;;;;2.17;1.02;;;;;;;;;;5040130;28;20485;-71
2022/08/03 10:42:25;;;;;;;3.78;1.50;;;;;;;;;;5044083;28;20060;-71
2022/08/03 10:44:54;;;;;;;3.67;1.65;;;;;;;;;;5045002;28;20024;-71
2022/08/03 10:47:20;;;;;;;3.38;1.40;;;;;;;;;;5050223;28;20029;-72
2022/08/03 10:49:47;;;;;;;2.90;1.40;;;;;;;;;;5043856;28;20369;-71
2022/08/03 10:52:12;;;;;;;3.67;1.42;;;;;;;;;;5042553;28;20076;-71
2022/08/03 10:57:41;;;;;;;6.07;1.48;;;;;;;;;;5047702;28;20059;-72
2022/08/03 11:00:07;;;;;;;4.60;1.27;;;;;;;;;;5042574;28;20021;-71
2022/08/03 11:02:52;;;;;;;2.92;1.33;;;;;;;;;;5045142;28;20037;-71
2022/08/03 11:05:27;;;;;;;6.53;1.40;;;;;;;;;;5041605;28;20155;-71
2022/08/03 11:08:12;;;;;;;5.25;1.38;;;;;;;;;;5031677;28;20108;-71
2022/08/03 11:10:38;;;;;;;5.15;1.40;;;;;;;;;;5038755;28;20178;-72
2022/08/03 11:13:05;;;;;;;4.35;1.48;;;;;;;;;;5041937;28;20111;-71
2022/08/03 11:15:32;;;;;;;3.90;1.33;;;;;;;;;;5036546;28;20051;-71
2022/08/03 11:18:09;;;;;;;6.05;1.60;;;;;;;;;;5031561;28;20029;-71
2022/08/03 11:20:44;;;;;;;5.30;1.60;;;;;;;;;;5038263;28;20029;-71
2022/08/03 11:23:09;;;;;;;3.65;1.50;;;;;;;;;;5048882;28;20041;-71
2022/08/03 11:25:57;;;;;;;4.70;1.55;;;;;;;;;;5030485;28;20449;-71
2022/08/03 11:28:27;;;;;;;4.20;1.60;;;;;;;;;;5030753;28;20068;-71
2022/08/03 11:30:52;;;;;;;6.35;1.90;;;;;;;;;;5030307;28;20025;-72
2022/08/03 11:33:28;;;;;;;2.92;1.52;;;;;;;;;;5030929;28;20456;-72
2022/08/03 11:36:00;;;;;;;3.08;1.42;;;;;;;;;;5037181;28;20532;-72
2022/08/03 11:38:25;;;;;;;5.55;1.70;;;;;;;;;;5040114;28;20078;-71
2022/08/03 11:40:52;;;;;;;3.67;1.55;;;;;;;;;;5035608;28;20049;-71
2022/08/03 11:43:29;;;;;;;8.07;1.90;;;;;;;;;;5038067;28;20045;-71
2022/08/03 11:46:05;;;;;;;4.35;1.60;;;;;;;;;;5042071;28;20032;-72
2022/08/03 11:48:38;;;;;;;4.57;1.40;;;;;;;;;;5047100;28;20396;-71
2022/08/03 11:51:03;;;;;;;;;;;;;;;;;;5045237;28;20028;-72
2022/08/03 11:53:29;;;;;;;4.50;1.50;;;;;;;;;;5042746;28;20030;-71
2022/08/03 11:55:57;;;;;;;3.85;1.50;;;;;;;;;;5043200;28;20108;-71
2022/08/03 11:58:22;;;;;;;3.83;1.58;;;;;;;;;;5042297;28;20040;-71
2022/08/03 12:00:49;;;;;;;5.28;1.48;;;;;;;;;;5045518;28;20032;-71
2022/08/03 12:03:16;;;;;;;5.25;1.60;;;;;;;;;;5039189;28;20041;-71
2022/08/03 12:05:41;;;;;;;5.47;1.73;;;;;;;;;;5035622;28;20083;-71
2022/08/03 12:08:07;;;;;;;4.00;1.60;;;;;;;;;;5038961;28;20029;-71
2022/08/03 12:10:33;;;;;;;4.22;1.58;;;;;;;;;;5040392;28;20033;-71
2022/08/03 12:12:59;;;;;;;5.22;1.70;;;;;;;;;;5036671;28;20043;-71
2022/08/03 12:15:25;;;;;;;5.43;1.60;;;;;;;;;;5031248;28;20457;-71
2022/08/03 12:17:50;;;;;;;5.70;1.88;;;;;;;;;;5032211;28;20083;-71
2022/08/03 12:20:20;;;;;;;4.75;2.15;;;;;;;;;;5029624;28;20029;-71
2022/08/03 12:22:45;;;;;;;6.53;1.70;;;;;;;;;;5037063;28;20036;-71
2022/08/03 12:25:18;;;;;;;3.45;1.42;;;;;;;;;;5030196;28;20373;-71
2022/08/03 12:27:44;;;;;;;;;;;;;;;;;;5030567;28;20044;-71
2022/08/03 12:30:09;;;;;;;6.90;1.63;;;;;;;;;;5031983;28;20094;-71
2022/08/03 12:32:34;;;;;;;4.28;1.60;;;;;;;;;;5029213;28;20086;-71
2022/08/03 12:35:00;;;;;;;3.38;1.50;;;;;;;;;;5029153;28;20029;-71
2022/08/03 12:37:25;;;;;;;5.50;1.63;;;;;;;;;;5030911;28;20112;-71
2022/08/03 12:39:55;;;;;;;5.13;1.60;;;;;;;;;;5027316;28;20054;-71
2022/08/03 12:42:20;;;;;;;5.75;1.55;;;;;;;;;;5031201;28;20500;-71
2022/08/03 12:44:47;;;;;;;8.23;1.60;;;;;;;;;;5029392;28;20017;-71
2022/08/03 12:47:14;;;;;;;3.97;1.25;;;;;;;;;;5030123;28;20029;-71
2022/08/03 12:49:46;;;;;;;2.08;1.20;;;;;;;;;;5031521;28;20064;-72
2022/08/03 12:52:17;;;;;;;5.28;1.30;;;;;;;;;;5028509;28;20029;-71
2022/08/03 12:54:52;;;;;;;4.80;1.50;;;;;;;;;;5035105;28;20064;-71
2022/08/03 12:57:18;;;;;;;3.97;1.40;;;;;;;;;;5031158;28;20057;-72
2022/08/03 12:59:47;;;;;;;3.25;1.38;;;;;;;;;;5031250;28;20021;-71
2022/08/03 13:02:20;;;;;;;6.75;1.65;;;;;;;;;;5028503;28;20044;-71
2022/08/03 13:04:46;;;;;;;2.72;1.25;;;;;;;;;;5039398;28;20025;-71
2022/08/03 13:07:11;;;;;;;4.32;1.50;;;;;;;;;;5033646;28;20052;-72
2022/08/03 13:09:43;;;;;;;3.30;1.60;;;;;;;;;;5030773;28;20024;-71
2022/08/03 13:12:10;;;;;;;4.28;1.42;;;;;;;;;;5038330;28;20481;-71
2022/08/03 13:14:35;;;;;;;4.38;1.50;;;;;;;;;;5045334;28;20037;-71
2022/08/03 13:17:01;;;;;;;5.13;1.60;;;;;;;;;;5033018;28;20087;-71
2022/08/03 13:19:26;;;;;;;5.30;1.55;;;;;;;;;;5037840;28;20032;-71
2022/08/03 13:21:51;;;;;;;6.35;1.73;;;;;;;;;;5039021;28;20077;-71
2022/08/03 13:24:17;;;;;;;4.13;1.25;;;;;;;;;;5034317;28;20013;-71
2022/08/03 13:26:43;;;;;;;4.47;1.23;;;;;;;;;;5031849;28;20030;-71
2022/08/03 13:29:08;;;;;;;6.57;1.40;;;;;;;;;;5034474;28;20888;-71
2022/08/03 13:31:33;;;;;;;6.45;1.67;;;;;;;;;;5039991;28;20021;-71
2022/08/03 13:33:59;;;;;;;6.50;1.40;;;;;;;;;;5042961;28;20021;-71
2022/08/03 13:36:24;;;;;;;5.28;1.65;;;;;;;;;;5038241;28;20029;-71
2022/08/03 13:38:49;;;;;;;5.13;1.85;;;;;;;;;;5035744;28;20111;-71
2022/08/03 13:41:15;;;;;;;5.88;1.90;;;;;;;;;;5038402;28;20025;-71
2022/08/03 13:43:40;;;;;;;3.55;1.52;;;;;;;;;;5041669;28;20063;-71
2022/08/03 13:46:05;;;;;;;9.10;1.73;;;;;;;;;;5038224;28;20029;-71
2022/08/03 13:48:31;;;;;;;5.28;1.45;;;;;;;;;;5037907;28;20037;-71
2022/08/03 13:50:56;;;;;;;3.83;1.60;;;;;;;;;;5039565;28;20033;-71
2022/08/03 13:53:22;;;;;;;4.20;1.30;;;;;;;;;;5042851;28;20071;-71
2022/08/03 13:55:47;;;;;;;3.45;1.38;;;;;;;;;;5040237;28;20033;-71
2022/08/03 13:58:12;;;;;;;5.45;1.70;;;;;;;;;;5046826;28;20035;-72
2022/08/03 14:00:38;;;;;;;4.22;1.40;;;;;;;;;;5043957;28;20021;-71
2022/08/03 14:03:04;;;;;;;6.00;1.60;;;;;;;;;;5039321;28;20087;-71
2022/08/03 14:05:30;;;;;;;3.50;1.50;;;;;;;;;;5045027;28;20040;-71
2022/08/03 14:07:56;;;;;;;4.60;1.65;;;;;;;;;;5044866;28;20024;-70
2022/08/03 14:10:21;;;;;;;7.47;1.70;;;;;;;;;;5044778;28;20404;-71
2022/08/03 14:12:46;;;;;;;4.78;1.48;;;;;;;;;;5045335;28;20029;-71
2022/08/03 14:15:13;;;;;;;4.30;1.45;;;;;;;;;;5041613;28;20025;-71
2022/08/03 14:17:39;;;;;;;2.08;1.10;;;;;;;;;;5032971;28;20025;-71
2022/08/03 14:20:05;;;;;;;4.32;1.30;;;;;;;;;;5044049;28;20037;-71
2022/08/03 14:22:30;;;;;;;4.53;1.30;;;;;;;;;;5032993;28;20040;-71
2022/08/03 14:24:56;;;;;;;3.38;1.38;;;;;;;;;;5031843;28;20030;-71
2022/08/03 14:27:22;;;;;;;5.97;1.35;;;;;;;;;;5045087;28;20051;-71
2022/08/03 14:29:47;;;;;;;5.35;1.42;;;;;;;;;;5035170;28;20439;-72
2022/08/03 14:32:12;;;;;;;3.53;1.10;;;;;;;;;;5035451;28;20033;-71
2022/08/03 14:34:37;;;;;;;4.88;1.40;;;;;;;;;;5039837;28;20095;-71
2022/08/03 14:37:03;;;;;;;3.75;1.30;;;;;;;;;;5038363;28;20425;-71
2022/08/03 14:39:28;;;;;;;3.22;1.40;;;;;;;;;;5034619;28;20047;-72
2022/08/03 14:41:53;;;;;;;5.80;1.40;;;;;;;;;;5041120;28;20045;-71
2022/08/03 14:44:18;;;;;;;2.60;1.38;;;;;;;;;;5046508;28;20431;-72
2022/08/03 14:46:44;;;;;;;3.45;1.35;;;;;;;;;;5045139;28;20023;-71
2022/08/03 14:49:09;;;;;;;3.15;1.20;;;;;;;;;;5043368;28;20654;-71
2022/08/03 14:51:34;;;;;;;5.28;1.48;;;;;;;;;;5039677;28;20064;-71